createdAt,value
2022-08-05T00:01:27.790Z,3.50
2022-08-05T00:03:57.102Z,3.10
2022-08-05T00:06:32.219Z,3.43
2022-08-05T00:09:00.700Z,3.33
2022-08-05T00:11:34.614Z,3.53
2022-08-05T00:14:02.320Z,3.77
2022-08-05T00:16:53.015Z,3.33
2022-08-05T00:19:22.152Z,3.33
2022-08-05T00:21:49.140Z,3.70
2022-08-05T00:24:18.875Z,3.87
2022-08-05T00:26:52.126Z,4.03
2022-08-05T00:29:25.168Z,3.20
2022-08-05T00:31:53.217Z,3.53
2022-08-05T00:34:55.989Z,3.10
2022-08-05T00:37:22.768Z,3.17
2022-08-05T00:39:58.489Z,3.57
2022-08-05T00:42:31.633Z,3.90
2022-08-05T00:44:59.322Z,3.63
2022-08-05T00:47:26.404Z,4.27
2022-08-05T00:50:13.079Z,3.77
2022-08-05T00:52:40.406Z,4.00
2022-08-05T00:55:07.176Z,3.83
2022-08-05T00:57:38.424Z,4.87
2022-08-05T01:00:22.044Z,3.33
2022-08-05T01:02:52.842Z,3.83
2022-08-05T01:05:19.953Z,4.50
2022-08-05T01:08:40.698Z,3.40
2022-08-05T01:10:33.990Z,4.20
2022-08-05T01:13:13.127Z,4.03
2022-08-05T01:15:47.907Z,5.07
2022-08-05T01:18:14.914Z,5.20
2022-08-05T01:20:42.472Z,4.57
2022-08-05T01:23:15.244Z,4.33
2022-08-05T01:25:53.169Z,4.57
2022-08-05T01:28:20.583Z,4.70
2022-08-05T01:30:53.882Z,4.70
2022-08-05T01:33:22.177Z,4.40
2022-08-05T01:35:53.446Z,4.53
2022-08-05T01:38:27.599Z,4.33
2022-08-05T01:40:56.240Z,6.30
2022-08-05T01:43:24.192Z,5.80
2022-08-05T01:45:56.134Z,5.87
2022-08-05T01:48:23.857Z,5.27
2022-08-05T01:50:51.451Z,6.50
2022-08-05T01:53:55.053Z,6.70
2022-08-05T01:56:06.215Z,7.00
2022-08-05T01:58:45.232Z,9.60
2022-08-05T02:01:12.441Z,10.50
2022-08-05T02:03:39.179Z,9.20
2022-08-05T02:06:33.424Z,7.37
2022-08-05T02:08:58.654Z,11.80
2022-08-05T02:11:33.368Z,11.00
2022-08-05T02:14:00.811Z,9.23
2022-08-05T02:16:29.157Z,11.70
2022-08-05T02:18:56.358Z,10.13
2022-08-05T02:21:23.140Z,6.73
2022-08-05T02:23:52.307Z,10.97
2022-08-05T02:26:19.308Z,8.70
2022-08-05T02:28:48.626Z,7.73
2022-08-05T02:31:16.510Z,10.93
2022-08-05T02:33:43.330Z,10.97
2022-08-05T02:36:10.134Z,9.43
2022-08-05T02:38:40.519Z,8.27
2022-08-05T02:41:17.076Z,9.10
2022-08-05T02:44:06.220Z,7.90
2022-08-05T02:46:31.558Z,6.73
2022-08-05T02:48:58.365Z,6.90
2022-08-05T02:51:28.184Z,8.00
2022-08-05T02:54:11.940Z,8.43
2022-08-05T02:56:58.710Z,6.80
2022-08-05T02:59:27.106Z,6.00
2022-08-05T03:01:58.222Z,7.40
2022-08-05T03:04:25.551Z,5.73
2022-08-05T03:06:58.850Z,6.30
2022-08-05T03:09:38.165Z,6.03
2022-08-05T03:12:10.076Z,5.90
2022-08-05T03:14:45.559Z,4.57
2022-08-05T03:17:12.834Z,4.50
2022-08-05T03:19:39.559Z,4.70
2022-08-05T03:22:16.278Z,4.33
2022-08-05T03:24:47.165Z,3.30
2022-08-05T03:27:17.580Z,3.73
2022-08-05T03:29:45.216Z,3.80
2022-08-05T03:32:31.449Z,4.20
2022-08-05T03:34:58.239Z,3.57
2022-08-05T03:37:25.220Z,3.70
2022-08-05T03:39:58.600Z,3.77
2022-08-05T03:42:27.208Z,3.63
2022-08-05T03:44:56.134Z,4.50
2022-08-05T03:47:24.309Z,3.53
2022-08-05T03:49:52.416Z,4.97
2022-08-05T03:52:37.866Z,5.67
2022-08-05T03:56:05.719Z,7.20
2022-08-05T03:57:53.083Z,6.60
2022-08-05T04:00:25.911Z,6.53
2022-08-05T04:02:58.571Z,6.13
2022-08-05T04:05:25.923Z,8.60
2022-08-05T04:07:57.822Z,7.30
2022-08-05T04:10:25.194Z,6.97
2022-08-05T04:12:54.720Z,6.90
2022-08-05T04:15:24.309Z,6.17
2022-08-05T04:17:56.660Z,7.40
2022-08-05T04:20:25.106Z,6.47
2022-08-05T04:22:51.811Z,6.27
2022-08-05T04:25:18.546Z,6.60
2022-08-05T04:27:58.182Z,6.87
2022-08-05T04:30:26.689Z,6.70
2022-08-05T04:32:53.598Z,7.23
2022-08-05T04:35:20.368Z,7.67
2022-08-05T04:38:02.662Z,7.80
2022-08-05T04:40:33.511Z,7.43
2022-08-05T04:43:00.261Z,7.47
2022-08-05T04:45:48.533Z,8.00
2022-08-05T04:48:18.703Z,6.80
2022-08-05T04:51:02.925Z,7.17
2022-08-05T04:53:33.981Z,7.00
2022-08-05T04:56:33.769Z,6.90
2022-08-05T04:58:52.035Z,7.90
2022-08-05T05:02:05.482Z,7.77
2022-08-05T05:04:06.391Z,7.53
2022-08-05T05:06:40.020Z,8.50
2022-08-05T05:09:14.097Z,9.30
2022-08-05T05:11:53.972Z,10.40
2022-08-05T05:14:31.331Z,9.57
2022-08-05T05:16:58.844Z,8.67
2022-08-05T05:19:27.252Z,8.80
2022-08-05T05:22:06.256Z,9.53
2022-08-05T05:24:58.937Z,8.60
2022-08-05T05:27:44.498Z,8.77
2022-08-05T05:30:15.609Z,10.37
2022-08-05T05:32:56.763Z,9.50
2022-08-05T05:35:23.694Z,9.40
2022-08-05T05:37:59.490Z,9.63
2022-08-05T05:40:28.240Z,9.40
2022-08-05T05:42:55.421Z,8.03
2022-08-05T05:45:23.152Z,9.33
2022-08-05T05:48:06.224Z,9.90
2022-08-05T05:50:34.133Z,8.60
2022-08-05T05:53:00.979Z,8.93
2022-08-05T05:55:51.980Z,8.27
2022-08-05T05:58:14.492Z,9.33
2022-08-05T06:00:41.251Z,9.20
2022-08-05T06:03:40.757Z,9.37
2022-08-05T06:06:00.076Z,9.30
2022-08-05T06:08:32.422Z,9.07
2022-08-05T06:10:59.875Z,10.00
2022-08-05T06:13:27.025Z,9.53
2022-08-05T06:16:28.397Z,8.43
2022-08-05T06:18:54.212Z,9.30
2022-08-05T06:21:22.031Z,9.03
2022-08-05T06:23:49.883Z,9.30
2022-08-05T06:26:21.648Z,9.90
2022-08-05T06:28:50.927Z,10.90
2022-08-05T06:31:18.294Z,8.53
2022-08-05T06:34:07.279Z,10.90
2022-08-05T06:36:37.496Z,9.70
2022-08-05T06:39:26.901Z,9.00
2022-08-05T06:41:54.403Z,11.87
2022-08-05T06:44:22.019Z,11.30
2022-08-05T06:46:50.745Z,11.87
2022-08-05T06:49:18.914Z,13.57
2022-08-05T06:51:48.177Z,12.23
2022-08-05T06:54:18.222Z,11.20
2022-08-05T06:56:54.518Z,10.67
2022-08-05T06:59:22.156Z,10.73
2022-08-05T07:01:49.163Z,10.33
2022-08-05T07:04:19.814Z,11.20
2022-08-05T07:06:46.584Z,12.40
2022-08-05T07:09:17.214Z,11.60
2022-08-05T07:11:49.566Z,13.10
2022-08-05T07:14:37.476Z,12.30
2022-08-05T07:18:01.764Z,13.97
2022-08-05T07:22:42.774Z,14.13
2022-08-05T07:25:54.068Z,15.87
2022-08-05T07:28:05.386Z,13.53
2022-08-05T07:30:39.168Z,13.90
2022-08-05T07:33:09.522Z,15.23
2022-08-05T07:36:02.054Z,17.80
2022-08-05T07:58:58.667Z,16.97
2022-08-05T08:01:27.889Z,16.27
2022-08-05T08:03:57.991Z,16.80
2022-08-05T08:06:28.205Z,14.47
2022-08-05T08:08:56.013Z,16.33
2022-08-05T08:11:27.657Z,14.63
2022-08-05T08:14:10.349Z,15.53
2022-08-05T08:16:51.049Z,16.80
2022-08-05T08:20:21.587Z,16.47
2022-08-05T08:22:09.135Z,14.80
2022-08-05T08:24:51.420Z,17.27
2022-08-05T08:27:19.584Z,17.00
2022-08-05T08:30:05.171Z,17.30
2022-08-05T08:32:34.875Z,16.40
2022-08-05T08:35:13.658Z,17.60
2022-08-05T08:37:45.057Z,17.53
2022-08-05T08:40:12.362Z,17.13
2022-08-05T08:42:50.961Z,16.37
2022-08-05T08:45:26.762Z,14.47
2022-08-05T08:48:06.885Z,14.83
2022-08-05T08:51:22.060Z,15.83
2022-08-05T08:53:26.709Z,13.17
2022-08-05T08:56:04.861Z,11.73
2022-08-05T08:58:43.455Z,9.53
2022-08-05T09:01:17.037Z,10.30
2022-08-05T09:03:45.703Z,8.87
2022-08-05T09:06:16.995Z,7.90
2022-08-05T09:08:46.498Z,7.77
2022-08-05T09:11:15.542Z,7.50
2022-08-05T09:14:09.418Z,6.17
2022-08-05T09:16:33.319Z,8.10
2022-08-05T09:19:06.806Z,7.60
2022-08-05T09:22:22.227Z,8.10
2022-08-05T09:24:21.766Z,6.87
2022-08-05T09:26:51.886Z,9.00
2022-08-05T09:29:19.224Z,8.50
2022-08-05T09:32:45.740Z,7.53
2022-08-05T09:34:32.938Z,8.63
2022-08-05T09:37:00.375Z,7.73
2022-08-05T09:39:41.829Z,7.70
2022-08-05T09:42:24.383Z,9.13
2022-08-05T09:44:57.190Z,7.80
2022-08-05T09:47:48.511Z,7.90
2022-08-05T09:50:38.843Z,8.00
2022-08-05T09:53:23.015Z,8.40
2022-08-05T09:56:04.536Z,8.10
2022-08-05T09:58:33.307Z,7.80
2022-08-05T10:01:01.002Z,7.70
2022-08-05T10:03:57.006Z,8.93
2022-08-05T10:06:23.634Z,9.53
2022-08-05T10:08:53.913Z,9.30
2022-08-05T10:11:23.801Z,9.63
2022-08-05T10:14:18.675Z,9.20
2022-08-05T10:16:52.768Z,8.97
2022-08-05T10:19:31.977Z,9.37
2022-08-05T10:22:15.647Z,9.00
2022-08-05T10:25:14.439Z,8.80
2022-08-05T10:28:09.425Z,8.57
2022-08-05T10:32:46.844Z,9.47
2022-08-05T10:33:20.018Z,9.33
2022-08-05T10:35:59.190Z,9.43
2022-08-05T10:38:28.121Z,10.27
2022-08-05T10:40:58.201Z,9.67
2022-08-05T10:43:35.567Z,8.87
2022-08-05T10:46:06.621Z,8.00
2022-08-05T10:52:14.715Z,8.20
2022-08-05T10:54:56.176Z,8.07
2022-08-05T10:57:25.102Z,8.47
2022-08-05T11:00:09.095Z,8.20
2022-08-05T11:12:17.768Z,7.77
2022-08-05T11:15:19.786Z,7.23
2022-08-05T11:17:57.667Z,7.23
2022-08-05T11:20:26.467Z,6.67
2022-08-05T11:22:57.981Z,6.50
2022-08-05T11:26:06.166Z,6.57
2022-08-05T11:28:18.758Z,7.10
2022-08-05T11:30:47.823Z,6.20
2022-08-05T11:33:21.515Z,7.60
2022-08-05T11:36:07.615Z,7.63
2022-08-05T11:38:45.364Z,9.10
2022-08-05T11:41:54.625Z,8.00
2022-08-05T11:44:40.473Z,7.80
2022-08-05T11:47:10.502Z,7.83
2022-08-05T11:49:51.299Z,7.90
2022-08-05T11:52:20.490Z,8.00
2022-08-05T11:54:57.299Z,8.37
2022-08-05T11:57:27.293Z,8.23
2022-08-05T11:59:55.158Z,7.80
2022-08-05T12:02:31.823Z,8.80
2022-08-05T12:05:06.745Z,9.73
2022-08-05T12:08:07.527Z,7.93
2022-08-05T12:10:24.923Z,8.13
2022-08-05T12:13:16.381Z,9.27
2022-08-05T12:15:49.948Z,9.17
2022-08-05T12:18:20.765Z,9.77
2022-08-05T12:20:53.126Z,8.67
2022-08-05T12:23:20.844Z,8.57
2022-08-05T12:25:52.377Z,8.40
2022-08-05T12:28:21.564Z,9.00
2022-08-05T12:31:02.014Z,8.53
2022-08-05T12:33:36.383Z,7.70
2022-08-05T12:36:07.159Z,7.30
2022-08-05T12:38:36.340Z,7.53
2022-08-05T12:41:03.721Z,7.47
2022-08-05T12:43:32.249Z,7.60
2022-08-05T12:45:59.864Z,6.93
2022-08-05T12:48:32.926Z,6.60
2022-08-05T12:51:00.320Z,6.10
2022-08-05T12:53:33.021Z,6.80
2022-08-05T12:56:04.169Z,7.30
2022-08-05T12:58:50.017Z,4.87
2022-08-05T13:02:04.263Z,5.63
2022-08-05T13:04:07.548Z,5.43
2022-08-05T13:06:36.585Z,4.87
2022-08-05T13:09:03.433Z,5.03
2022-08-05T13:12:01.158Z,5.53
2022-08-05T13:14:19.372Z,4.33
2022-08-05T13:16:47.171Z,5.67
2022-08-05T13:19:16.010Z,5.30
2022-08-05T13:21:48.213Z,5.87
2022-08-05T13:24:27.711Z,4.90
2022-08-05T13:27:11.094Z,4.20
2022-08-05T13:29:38.102Z,4.47
2022-08-05T13:32:05.474Z,4.53
2022-08-05T13:34:33.220Z,4.87
2022-08-05T13:37:00.573Z,4.10
2022-08-05T13:40:13.638Z,3.73
2022-08-05T13:42:15.293Z,3.97
2022-08-05T13:44:45.458Z,3.77
2022-08-05T13:47:35.950Z,3.90
2022-08-05T13:49:59.598Z,3.47
2022-08-05T13:52:29.236Z,3.47
2022-08-05T13:54:56.358Z,4.10
2022-08-05T13:57:24.257Z,3.30
2022-08-05T13:59:57.561Z,2.53
2022-08-05T14:02:29.701Z,3.00
2022-08-05T14:05:15.335Z,3.10
2022-08-05T14:07:59.498Z,2.60
2022-08-05T14:10:32.384Z,3.10
2022-08-05T14:12:59.904Z,3.73
2022-08-05T14:16:07.758Z,3.43
2022-08-05T14:18:17.708Z,4.20
2022-08-05T14:20:46.917Z,3.20
2022-08-05T14:23:14.744Z,2.93
2022-08-05T14:25:54.040Z,3.30
2022-08-05T14:28:26.269Z,3.93
2022-08-05T14:30:54.048Z,3.53
2022-08-05T14:33:23.211Z,3.77
2022-08-05T14:35:51.863Z,3.37
2022-08-05T14:38:33.152Z,3.83
2022-08-05T14:41:06.382Z,3.23
2022-08-05T14:43:59.606Z,3.77
2022-08-05T14:46:20.970Z,3.50
2022-08-05T14:48:49.924Z,4.23
2022-08-05T14:51:17.683Z,4.00
2022-08-05T14:53:44.945Z,4.43
2022-08-05T14:56:11.814Z,3.93
2022-08-05T14:58:47.589Z,4.13
2022-08-05T15:01:22.756Z,2.80
2022-08-05T15:04:09.955Z,2.90
2022-08-05T15:06:38.507Z,3.00
2022-08-05T15:09:07.403Z,3.03
2022-08-05T15:11:53.164Z,2.77
2022-08-05T15:14:35.905Z,3.87
2022-08-05T15:17:09.780Z,3.20
2022-08-05T15:19:55.145Z,3.20
2022-08-05T15:22:22.147Z,3.07
2022-08-05T15:24:54.271Z,3.10
2022-08-05T15:27:21.057Z,2.90
2022-08-05T15:29:47.791Z,3.07
2022-08-05T15:32:16.467Z,3.13
2022-08-05T15:34:43.997Z,3.40
2022-08-05T15:38:09.325Z,3.20
2022-08-05T15:41:03.178Z,3.30
2022-08-05T15:42:55.149Z,2.97
2022-08-05T15:45:37.976Z,2.83
2022-08-05T15:48:05.604Z,3.20
2022-08-05T15:50:33.827Z,2.27
2022-08-05T15:53:05.155Z,2.50
2022-08-05T15:56:03.165Z,2.80
2022-08-05T15:58:19.610Z,2.23
2022-08-05T16:00:50.576Z,1.90
2022-08-05T16:03:30.502Z,1.90
2022-08-05T16:05:59.630Z,2.10
2022-08-05T16:08:30.570Z,1.87
2022-08-05T16:10:57.821Z,1.80
2022-08-05T16:13:34.082Z,1.43
2022-08-05T16:16:01.883Z,1.83
2022-08-05T16:18:30.252Z,1.50
2022-08-05T16:20:58.731Z,1.20
2022-08-05T16:23:53.065Z,1.47
2022-08-05T16:26:17.584Z,1.43
2022-08-05T16:28:44.935Z,1.50
2022-08-05T16:31:11.757Z,1.50
2022-08-05T16:33:41.753Z,1.43
2022-08-05T16:36:08.889Z,1.57
2022-08-05T16:38:35.904Z,1.40
2022-08-05T16:41:29.835Z,1.33
2022-08-05T16:43:49.609Z,1.40
2022-08-05T16:46:23.615Z,1.23
2022-08-05T16:48:51.678Z,2.30
2022-08-05T16:51:19.385Z,1.40
2022-08-05T16:54:05.898Z,1.50
2022-08-05T16:56:34.492Z,1.10
2022-08-05T16:59:08.149Z,1.60
2022-08-05T17:01:53.837Z,1.43
2022-08-05T17:04:23.844Z,1.17
2022-08-05T17:06:55.481Z,1.13
2022-08-05T17:09:23.219Z,1.70
2022-08-05T17:11:51.562Z,0.87
2022-08-05T17:14:22.406Z,1.67
2022-08-05T17:17:05.069Z,1.43
2022-08-05T17:19:32.099Z,1.60
2022-08-05T17:22:00.725Z,1.33
2022-08-05T17:24:38.746Z,1.27
2022-08-05T17:27:13.122Z,1.23
2022-08-05T17:29:43.056Z,0.87
2022-08-05T17:32:11.804Z,0.70
2022-08-05T17:34:44.656Z,0.80
2022-08-05T17:37:32.141Z,0.67
2022-08-05T17:40:01.341Z,0.80
2022-08-05T17:42:30.038Z,1.03
2022-08-05T17:44:59.624Z,1.00
2022-08-05T17:47:27.120Z,0.90
2022-08-05T17:50:03.798Z,0.93
2022-08-05T17:52:31.281Z,0.70
2022-08-05T17:54:58.169Z,0.90
2022-08-05T17:57:25.112Z,0.90
2022-08-05T18:00:05.177Z,1.13
2022-08-05T18:02:32.831Z,0.67
2022-08-05T18:05:07.563Z,0.73
2022-08-05T18:07:41.974Z,0.80
2022-08-05T18:10:10.312Z,0.80
2022-08-05T18:12:37.580Z,1.13
2022-08-05T18:15:04.768Z,0.80
2022-08-05T18:17:58.927Z,1.00
2022-08-05T18:20:19.727Z,0.80
2022-08-05T18:22:57.391Z,0.70
2022-08-05T18:25:25.150Z,0.90
2022-08-05T18:27:52.863Z,1.40
2022-08-05T18:30:19.772Z,0.87
2022-08-05T18:32:53.366Z,1.37
2022-08-05T18:35:28.357Z,0.90
2022-08-05T18:38:13.764Z,1.20
2022-08-05T18:41:53.397Z,0.93
2022-08-05T18:43:37.870Z,0.80
2022-08-05T18:46:09.973Z,1.00
2022-08-05T18:48:41.813Z,0.90
2022-08-05T18:52:02.675Z,0.90
2022-08-05T18:54:14.703Z,0.63
2022-08-05T18:56:51.836Z,0.97
2022-08-05T18:59:43.924Z,0.70
2022-08-05T19:02:11.341Z,0.93
2022-08-05T19:05:01.583Z,0.93
2022-08-05T19:07:30.150Z,1.20
2022-08-05T19:10:12.389Z,0.90
2022-08-05T19:12:39.240Z,0.80
2022-08-05T19:15:06.130Z,0.83
2022-08-05T19:18:08.124Z,0.80
2022-08-05T19:20:37.400Z,0.87
2022-08-05T19:23:08.638Z,1.20
2022-08-05T19:26:01.877Z,1.17
2022-08-05T19:28:30.011Z,0.80
2022-08-05T19:30:57.063Z,1.37
2022-08-05T19:33:36.308Z,0.70
2022-08-05T19:36:03.604Z,1.10
2022-08-05T19:38:33.425Z,1.10
2022-08-05T19:41:02.624Z,0.90
2022-08-05T19:44:04.538Z,1.67
2022-08-05T19:46:29.353Z,1.10
2022-08-05T19:48:57.468Z,0.80
2022-08-05T19:52:09.040Z,0.90
2022-08-05T19:54:26.955Z,1.07
2022-08-05T19:56:58.065Z,1.20
2022-08-05T20:00:02.073Z,0.80
2022-08-05T20:02:13.061Z,0.70
2022-08-05T20:04:43.007Z,0.90
2022-08-05T20:07:13.318Z,1.10
2022-08-05T20:09:55.062Z,1.10
2022-08-05T20:12:24.084Z,1.20
2022-08-05T20:14:52.230Z,0.93
2022-08-05T20:17:19.424Z,0.80
2022-08-05T20:19:50.571Z,0.90
2022-08-05T20:22:17.389Z,1.00
2022-08-05T20:24:47.205Z,1.00
2022-08-05T20:27:15.792Z,1.17
2022-08-05T20:29:42.784Z,0.93
2022-08-05T20:32:25.064Z,1.33
2022-08-05T20:34:51.957Z,1.00
2022-08-05T20:38:04.721Z,1.00
2022-08-05T20:40:05.609Z,1.10
2022-08-05T20:42:33.423Z,1.13
2022-08-05T20:45:02.619Z,1.10
2022-08-05T20:47:32.000Z,1.10
2022-08-05T20:49:59.350Z,0.90
2022-08-05T20:52:26.568Z,1.20
2022-08-05T20:54:59.646Z,0.77
2022-08-05T20:57:43.618Z,0.77
2022-08-05T21:00:41.339Z,0.70
2022-08-05T21:03:06.874Z,1.10
2022-08-05T21:05:47.713Z,1.23
2022-08-05T21:08:20.917Z,1.03
2022-08-05T21:10:53.797Z,1.23
2022-08-05T21:13:26.387Z,1.50
2022-08-05T21:16:07.325Z,1.27
2022-08-05T21:18:34.476Z,1.10
2022-08-05T21:21:02.590Z,1.10
2022-08-05T21:23:29.453Z,0.90
2022-08-05T21:26:12.215Z,0.90
2022-08-05T21:28:39.514Z,0.83
2022-08-05T21:31:06.265Z,1.13
2022-08-05T21:33:36.874Z,1.20
2022-08-05T21:36:06.881Z,1.20
2022-08-05T21:38:38.720Z,1.00
2022-08-05T21:41:07.883Z,0.93
2022-08-05T21:43:41.910Z,1.10
2022-08-05T21:46:09.135Z,1.00
2022-08-05T21:48:38.772Z,1.30
2022-08-05T21:52:15.400Z,1.10
2022-08-05T21:53:59.812Z,1.17
2022-08-05T21:56:30.826Z,1.10
2022-08-05T21:58:58.152Z,1.57
2022-08-05T22:01:25.744Z,1.50
2022-08-05T22:03:53.611Z,0.80
2022-08-05T22:06:22.923Z,1.30
2022-08-05T22:09:13.211Z,1.50
2022-08-05T22:11:41.015Z,1.10
2022-08-05T22:14:34.305Z,1.10
2022-08-05T22:16:57.924Z,1.13
2022-08-05T22:20:02.225Z,1.20
2022-08-05T22:22:15.598Z,1.50
2022-08-05T22:25:01.689Z,1.00
2022-08-05T22:28:08.177Z,1.20
2022-08-05T22:30:32.317Z,1.10
2022-08-05T22:33:02.627Z,0.97
2022-08-05T22:35:31.223Z,1.07
2022-08-05T22:38:15.062Z,1.03
2022-08-05T22:40:41.993Z,1.10
2022-08-05T22:43:16.548Z,1.17
2022-08-05T22:46:08.821Z,1.10
2022-08-05T22:48:39.823Z,1.40
2022-08-05T22:51:07.745Z,1.27
2022-08-05T22:53:35.775Z,1.47
2022-08-05T22:56:03.030Z,0.93
2022-08-05T22:58:29.753Z,0.97
2022-08-05T23:00:59.688Z,1.20
2022-08-05T23:03:58.523Z,1.20
2022-08-05T23:06:13.370Z,1.23
2022-08-05T23:08:40.489Z,1.30
2022-08-05T23:11:08.671Z,1.40
2022-08-05T23:13:35.691Z,1.20
2022-08-05T23:16:03.903Z,1.50
2022-08-05T23:18:30.701Z,1.10
2022-08-05T23:20:59.062Z,1.17
2022-08-05T23:23:26.312Z,1.90
2022-08-05T23:26:00.379Z,1.30
2022-08-05T23:28:29.431Z,1.33
2022-08-05T23:31:15.822Z,2.27
2022-08-05T23:34:04.820Z,1.60
2022-08-05T23:36:38.517Z,1.10
2022-08-05T23:39:08.332Z,1.53
2022-08-05T23:41:37.366Z,1.30
2022-08-05T23:44:08.771Z,1.47
2022-08-05T23:46:37.470Z,1.77
2022-08-05T23:49:16.860Z,1.40
2022-08-05T23:52:08.000Z,1.87
2022-08-05T23:54:38.305Z,1.97
2022-08-05T23:57:05.472Z,2.03
2022-08-05T23:59:37.701Z,1.57
